Weather observations for the past three days for
Hebbronville, Jim Hogg County Airport
Metric (Imperial)
Date Time (cdt) Wind (kph) Vis. (km) Weather Sky Cond. Temperature (ºC) Relative Humidity Wind Chill (°C) Heat Index (°C) Pressure Precipitation (cm)
Air Dwpt 6 hour altimeter (cm) sea level (mb) 1 hr 3 hr 6 hr
Max. Min.
07 21:15 E 11 11.27 Light Rain SCT002 BKN006 BKN016 20.5 20 97% 75.92 0.0 0.03
07 20:55 SE 20 16.09 Light Rain FEW019 21.5 19.6 89% 75.92 0.0
07 20:35 E 13 14.48 Light Rain SCT019 21.8 19.7 88% 75.97 0.0
07 20:15 NE 9 16.09 A Few Clouds FEW018 22.1 19.3 84% 76.02 0.0
07 19:55 E 17 16.09 Fair CLR 22.3 19.3 83% 75.92 0.0
07 19:35 NE 17 16.09 Fair CLR 22.4 19.4 83% 75.92 0.0
07 19:15 NE 13 16.09 Fair CLR 22.6 19.4 82% 75.95 0.0
07 18:55 NE 17 16.09 Fair CLR 22.9 19.4 24.3 22.8 81% 75.92 0.0
07 18:35 NE 19 16.09 Fair CLR 23 19.5 81% 75.92 0.0
07 18:15 NE 17 16.09 Fair CLR 23 19.4 80% 75.92 0.0
07 17:55 NE 19 16.09 Fair CLR 23.2 19.8 81% 75.92 0.0
07 17:35 NE 17 16.09 Fair CLR 23.3 19.8 81% 75.92 0.0
07 17:15 E 17 16.09 Fair CLR 23.9 20 79% 24 75.9 0.0
07 16:55 E 15 16.09 Fair CLR 24.1 20.2 79% 25 75.92 0.0
07 16:35 NE 13 16.09 Fair CLR 23.9 20 79% 24 75.95 0.0
07 16:15 E 13 16.09 Fair CLR 23.8 20.1 80% 75.92 0.0
07 15:15 E 15 16.09 Fair CLR 23.2 19.7 81% 75.97 0.0
07 14:55 E 17 16.09 A Few Clouds FEW360 23.1 19.7 81% 76 0.0
07 14:35 E 20 16.09 A Few Clouds FEW360 23.2 19.7 81% 76 0.0
07 14:15 NE 20 16.09 A Few Clouds FEW360 23.5 19.8 80% 76 0.0
07 13:55 NE 20 16.09 A Few Clouds FEW370 23.4 19.7 80% 76.05 0.0
07 13:35 NE 19 16.09 A Few Clouds FEW370 23.9 19.7 77% 24 76.05 0.0
07 13:15 NE 17 16.09 Fair CLR 23.2 19.8 81% 76.07 0.0
07 12:55 NE 19 16.09 A Few Clouds FEW310 23 19.9 23.6 20.9 83% 76.1 0.0
07 12:35 NE 17 16.09 A Few Clouds FEW310 23.3 19.8 81% 76.07 0.0
07 12:15 NE 17 16.09 A Few Clouds FEW340 23.1 19.9 82% 76.07 0.0
07 11:55 E 15 16.09 Fair CLR 23.3 20 82% 76.07 0.0
07 11:35 E 13 16.09 Fair CLR 22.8 20 84% 76.07 0.0
07 11:15 NE 19 16.09 Fair CLR 22.4 20 86% 76.07 0.0
07 10:55 NE 17 14.48 Fair CLR 21.8 20 90% 76.07 0.0
07 10:35 NE 17 14.48 Fair CLR 21.8 20 90% 76.07 0.0
07 10:15 NE 17 14.48 Fair CLR 21.5 20.1 92% 76.07 0.0
07 09:55 NE 17 12.87 Fair CLR 21.2 20 93% 76.05 0.0
07 09:35 NE 17 12.87 Fair CLR 21.1 19.9 93% 76.07 0.0
07 09:15 NE 15 12.87 Fair CLR 21 19.8 93% 76.05 0.0
07 08:55 NE 13 16.09 Fair CLR 20.9 19.8 93% 76.05 0.0
07 08:35 NE 15 16.09 A Few Clouds FEW012 20.9 19.5 92% 76.02 0.0
07 08:15 NE 11 16.09 Fair CLR 20.9 19.7 93% 76 0.0
07 07:55 NE 15 14.48 A Few Clouds FEW010 21 20.1 95% 75.97 0.0
07 07:35 NE 19 12.87 A Few Clouds FEW010 20.9 20.2 96% 75.95 0.0
07 07:15 NE 19 12.87 A Few Clouds FEW012 21.1 20.1 94% 75.92 0.0
07 06:55 NE 17 16.09 Partly Cloudy SCT012 21.2 19.9 25.2 21.1 92% 75.92 0.0
07 06:35 NE 15 16.09 Mostly Cloudy BKN011 21.2 19.9 92% 75.92 0.0
07 06:15 NE 15 16.09 Mostly Cloudy BKN010 21.3 19.8 91% 75.87 0.0
07 05:55 NE 13 16.09 Mostly Cloudy BKN011 21.4 19.8 91% 75.87 0.0
07 05:35 NE 17 16.09 Overcast OVC011 21.5 19.8 90% 75.9 0.0
07 05:15 NE 13 16.09 Overcast OVC010 21.6 20.1 91% 75.87 0.0
07 04:55 NE 15 16.09 Overcast OVC008 21.7 20.8 95% 75.84 0.0
07 04:35 NE 13 16.09 Overcast OVC008 21.7 21.1 96% 75.84 0.0
07 04:15 NE 15 16.09 Overcast OVC008 21.6 21.4 99% 75.87 0.0
07 03:55 NE 15 12.87 Light Rain OVC005 21.7 21.7 100% 75.84 0.0
07 03:35 NE 19 9.66 Fog/Mist OVC004 22.5 22.5 100% 75.84 0.0
07 03:15 E 9 8.05 Fog/Mist OVC005 25 25 100% 25 75.87 0.0
07 02:55 E 11 8.05 Fog/Mist OVC005 25.2 25.2 100% 26 75.84 0.0
07 02:35 E 7 8.05 Fog/Mist OVC006 25.2 25.2 100% 26 75.84 0.0
07 02:15 NE 11 8.05 Fog/Mist SCT002 OVC006 25.2 25.2 100% 26 75.87 0.0
07 01:55 NE 15 8.05 Fog/Mist OVC002 25 25 100% 25 75.87 0.0
07 01:35 E 13 8.05 Fog/Mist OVC002 25.1 25.1 100% 26 75.84 0.0
07 01:15 E 13 8.05 Fog/Mist OVC002 25.1 25.1 100% 26 75.84 0.0
07 00:55 E 11 8.05 Fog/Mist OVC002 25.1 25.1 31.5 24.9 100% 26 75.84 0.0
07 00:15 E 9 6.44 Fog/Mist OVC001 25 25 100% 25 75.84 0.0
06 23:55 E 7 8.05 Fog/Mist FEW002 25.1 25.1 100% 26 75.84 0.0
06 23:35 E 7 9.66 Fog/Mist CLR 25.2 25.2 100% 26 75.82 0.0
06 23:15 E 6 9.66 Fog/Mist CLR 25.6 25.6 100% 27 75.82 0.0
06 22:55 NE 7 11.27 Fair CLR 26 26 100% 28 75.82 0.0
06 22:35 E 9 11.27 Fair CLR 26.3 26.3 100% 29 75.82 0.0
06 22:15 E 9 11.27 Fair CLR 26.5 26.4 99% 30 75.79 0.0
06 21:55 E 13 11.27 Fair CLR 27.1 26.6 97% 32 75.74 0.0
06 21:35 E 13 11.27 Fair CLR 27.5 26.6 95% 33 75.72 0.0
06 21:15 E 15 12.87 Fair CLR 28 26.6 92% 34 75.72 0.0
06 20:55 E 11 12.87 Fair CLR 28.4 25.9 86% 34 75.67 0.0
06 20:35 E 11 12.87 Fair CLR 28.9 25.9 84% 35 75.62 0.0
06 20:15 E 13 11.27 Fair CLR 29.3 25.8 81% 36 75.59 0.0
06 19:55 E 15 11.27 Fair CLR 30.2 25.7 77% 37 75.57 0.0
06 19:35 E 20 12.87 Fair CLR 30.6 25.3 73% 38 75.54 0.0
06 19:15 E 15 11.27 Fair CLR 31.1 25.2 71% 38 75.51 0.0
06 18:55 E 17 16.09 Fair CLR 31.9 24.7 32.4 28.3 66% 39 75.51 0.0
06 18:35 E 17 16.09 Fair CLR 31.9 24.5 65% 38 75.49 0.0
06 18:15 E 17 16.09 Fair CLR 32 24.7 65% 39 75.46 0.0
06 17:55 E 15 G 30 14.48 Fair CLR 32 24.6 65% 39 75.46 0.0
06 17:35 NE 13 14.48 Fair CLR 32.3 25 65% 40 75.46 0.0
06 17:15 NE 20 14.48 Fair CLR 32.2 25.1 66% 40 75.46 0.0
06 16:55 NE 11 14.48 Fair CLR 31.8 25 67% 39 75.49 0.0
06 16:35 NE 17 14.48 A Few Clouds FEW320 31.6 25 68% 39 75.49 0.0
06 16:15 Vrbl 11 14.48 A Few Clouds FEW370 31.5 25.4 70% 39 75.51 0.0
06 15:55 NE 13 14.48 A Few Clouds FEW360 31.5 25.3 70% 39 75.51 0.0
06 15:35 E 13 12.87 Partly Cloudy FEW310 SCT360 31.3 25.2 70% 38 75.54 0.0
06 15:15 N 17 12.87 A Few Clouds FEW300 30.6 25.2 73% 37 75.57 0.0
06 14:55 Vrbl 7 12.87 Fair CLR 30.5 25.3 74% 37 75.59 0.0
06 14:35 N 9 12.87 Fair CLR 30.2 25.1 74% 37 75.59 0.0
06 14:15 Vrbl 9 12.87 A Few Clouds FEW340 29.9 25.5 77% 37 75.62 0.0
06 13:55 Calm 12.87 Partly Cloudy FEW320 SCT380 29.6 25.4 78% 36 75.62 0.0
06 13:35 Calm 12.87 A Few Clouds FEW330 29.3 25.5 80% 36 75.62 0.0
06 13:15 Calm 11.27 Fair CLR 28.4 25.4 84% 34 75.64 0.0
06 12:55 Calm 11.27 Fair CLR 28.4 25.6 28.4 24.5 85% 34 75.67 0.0
06 12:35 Calm 11.27 A Few Clouds FEW380 28.2 25.5 85% 34 75.67 0.0
06 12:15 S 6 11.27 Fair CLR 27.8 25.4 87% 33 75.67 0.0
06 11:55 Calm 9.66 Fog/Mist CLR 27.2 25.5 90% 31 75.64 0.0
06 11:35 S 9 9.66 Fog/Mist CLR 27.2 25.6 91% 31 75.64 0.0
06 11:15 S 9 6.44 Fog/Mist FEW002 26.3 25.4 95% 29 75.64 0.0
06 10:55 S 9 6.44 Fog/Mist BKN004 25.8 25.4 98% 28 75.64 0.0
06 10:35 S 11 6.44 Fog/Mist BKN004 25.6 25.4 99% 27 75.62 0.0
06 10:15 S 11 6.44 Fog/Mist SCT002 25.7 25.3 98% 27 75.59 0.0
06 09:55 Vrbl 9 6.44 Fog/Mist OVC006 25.6 25.2 98% 27 75.59 0.0
06 09:35 SE 17 6.44 Fog/Mist BKN005 25.5 25.1 98% 27 75.59 0.0
06 09:15 SE 15 6.44 Fog/Mist OVC006 25.4 25.2 99% 27 75.59 0.0
06 08:55 SE 17 6.44 Fog/Mist OVC006 25.1 25 99% 26 75.57 0.0
06 08:35 SE 13 6.44 Fog/Mist OVC007 25.1 25.1 100% 26 75.59 0.0
06 08:15 E 11 6.44 Fog/Mist OVC006 25 25 100% 25 75.57 0.0
06 07:55 SE 9 6.44 Fog/Mist BKN002 24.9 24.9 100% 25 75.57 0.0
06 07:35 E 7 6.44 Fog/Mist SCT002 24.7 24.7 100% 24 75.57 0.0
06 07:15 E 7 6.44 Fog/Mist OVC005 24.6 24.6 100% 24 75.54 0.0
06 06:55 E 7 8.05 Fog/Mist OVC009 24.5 24.5 25.6 24.5 100% 24 75.51 0.0
06 06:35 E 6 9.66 Fog/Mist OVC009 24.6 24.6 100% 24 75.51 0.0
06 06:15 E 7 9.66 Fog/Mist BKN010 24.9 24.9 100% 25 75.51 0.0
06 05:55 E 9 12.87 Fair CLR 25 24.8 99% 25 75.49 0.0
06 05:35 E 7 12.87 Fair CLR 25.2 24.8 98% 26 75.49 0.0
06 05:15 E 6 12.87 A Few Clouds FEW007 25.2 24.9 98% 26 75.49 0.0
06 04:55 SE 6 14.48 Fair CLR 25.1 24.8 98% 26 75.46 0.0
06 04:35 SE 7 12.87 Fair CLR 25.1 24.8 98% 26 75.46 0.0
06 04:15 SE 7 9.66 Fog/Mist CLR 25.2 24.7 97% 26 75.46 0.0
06 03:55 SE 13 9.66 Fog/Mist CLR 25.2 24.7 97% 26 75.46 0.0
06 03:35 SE 13 9.66 Fog/Mist CLR 25.3 24.7 96% 26 75.46 0.0
06 03:15 SE 13 9.66 Fog/Mist CLR 25.3 24.8 97% 26 75.46 0.0
06 02:55 SE 15 11.27 Fair CLR 25.3 24.6 96% 26 75.46 0.0
06 02:35 SE 17 11.27 Fair CLR 25.5 24.8 96% 27 75.46 0.0
06 02:15 SE 17 11.27 Fair CLR 25.5 24.8 96% 27 75.46 0.0
06 01:55 SE 17 11.27 Fair CLR 25.6 24.7 95% 27 75.46 0.0
06 00:55 SE 17 11.27 Fair CLR 25.5 24.5 32.9 25.5 94% 27 75.46 0.0
06 00:35 SE 17 11.27 Fair CLR 25.8 24.5 93% 28 75.49 0.0
06 00:15 SE 13 11.27 Fair CLR 25.8 24.6 93% 28 75.51 0.0
05 23:55 SE 19 G 31 11.27 Fair CLR 26.3 24.6 90% 29 75.51 0.0
05 23:35 SE 17 11.27 Fair CLR 26.4 24.6 90% 29 75.51 0.0
05 23:15 SE 19 G 31 11.27 Fair CLR 26.5 24.5 89% 29 75.51 0.0
05 22:55 SE 24 12.87 Fair CLR 26.9 24.5 87% 30 75.49 0.0
05 22:35 SE 15 G 31 12.87 Fair CLR 27 24.4 86% 30 75.49 0.0
05 22:15 SE 20 G 31 11.27 Fair CLR 27.2 24.3 84% 31 75.46 0.0
05 21:55 SE 17 12.87 Fair CLR 27.7 23.9 80% 31 75.44 0.0
05 21:35 SE 22 12.87 Fair CLR 28.1 23.7 77% 32 75.41 0.0
05 21:15 SE 17 G 28 12.87 Fair CLR 28.7 23.4 73% 33 75.39 0.0
05 20:55 SE 19 12.87 Fair CLR 29.4 23.3 70% 34 75.34 0.0
05 20:35 SE 17 12.87 Fair CLR 29.7 23.2 68% 34 75.34 0.0
05 20:15 SE 15 9.66 Fair with Haze CLR 30.2 23.2 66% 35 75.31 0.0
05 19:55 SE 17 9.66 Fair with Haze CLR 31.2 23 62% 36 75.29 0.0
05 19:35 SE 19 11.27 Fair CLR 31.8 22.6 58% 36 75.29 0.0
05 19:15 SE 19 11.27 Fair CLR 32.5 22.5 56% 37 75.26 0.0
05 18:55 SE 19 12.87 Fair CLR 33.2 22.3 35.3 32.1 53% 38 75.26 0.0
05 18:35 SE 19 12.87 Fair CLR 34.1 22.4 50% 39 75.26 0.0
05 18:15 SE 15 12.87 Fair CLR 34.3 22.1 49% 39 75.26 0.0
05 17:55 SE 17 12.87 Fair CLR 34.8 21.5 46% 39 75.26 0.0
05 17:35 S 19 12.87 Fair CLR 34.7 21.7 47% 39 75.26 0.0
05 17:15 SE 19 G 28 12.87 Fair CLR 35.1 21.6 45% 39 75.26 0.0
05 16:55 SE 19 G 31 14.48 Fair CLR 34.5 21.6 47% 38 75.26 0.0
05 16:35 SE 20 G 30 12.87 Fair CLR 34.6 21.9 48% 39 75.29 0.0
05 16:15 S 22 G 31 12.87 Fair CLR 34.5 21.9 48% 39 75.31 0.0
05 15:55 S 19 12.87 Fair CLR 34.5 21.9 48% 39 75.34 0.0
05 15:35 Vrbl 11 14.48 Fair CLR 34.4 22 48% 39 75.36 0.0
05 15:15 SE 19 G 28 12.87 Fair CLR 33.9 22.1 50% 38 75.39 0.0
05 14:55 SE 20 G 30 14.48 Fair CLR 33.9 22.4 51% 39 75.44 0.0
05 14:35 S 17 12.87 Fair CLR 33.2 22.5 53% 38 75.44 0.0
05 14:15 S 11 12.87 A Few Clouds FEW340 33.1 22.4 53% 38 75.44 0.0
05 13:55 S 20 12.87 A Few Clouds FEW280 33 23 56% 38 75.46 0.0
05 13:35 S 19 G 31 14.48 Partly Cloudy FEW320 SCT340 33 23 56% 38 75.49 0.0
05 13:15 S 22 G 37 12.87 Partly Cloudy FEW330 SCT350 32.7 23.3 58% 38 75.49 0.0
05 12:55 S 19 12.87 A Few Clouds FEW380 32.1 23.5 32.2 23.5 60% 37 75.51 0.0
05 12:35 S 22 12.87 Fair CLR 31.7 23.2 61% 37 75.51 0.0
05 12:15 S 22 G 31 14.48 Fair CLR 31.2 23.4 63% 36 75.54 0.0
05 11:55 S 22 G 33 12.87 Fair CLR 30.7 23.3 65% 35 75.57 0.0
05 11:35 S 19 G 31 12.87 Fair CLR 30.1 23.4 67% 35 75.57 0.0
05 11:15 S 22 G 30 14.48 Fair CLR 29.3 23.1 69% 33 75.59 0.0
05 10:55 S 19 G 31 14.48 Fair CLR 28.6 23.3 73% 32 75.59 0.0
05 10:35 S 22 14.48 Fair CLR 28.1 23.5 76% 32 75.59 0.0
05 10:15 S 20 G 30 14.48 Fair CLR 27.3 23.4 79% 30 75.59 0.0
05 09:55 S 26 G 37 16.09 Fair CLR 26.7 23.4 82% 29 75.59 0.0
05 09:35 S 19 G 31 14.48 Fair CLR 26.1 23.3 85% 28 75.57 0.0
05 09:15 S 20 G 33 14.48 Fair CLR 25.2 23.3 89% 26 75.59 0.0
05 08:55 S 19 11.27 A Few Clouds FEW013 24.5 23.2 93% 24 75.57 0.0
05 08:35 S 19 11.27 A Few Clouds FEW013 24.4 23.2 93% 24 75.59 0.0
05 08:15 S 22 11.27 Fair CLR 23.9 23.1 95% 23 75.59 0.0
05 07:55 S 17 12.87 Fair CLR 23.7 23 96% 75.57 0.0
05 07:35 S 17 11.27 A Few Clouds FEW013 23.6 22.9 96% 75.57 0.0
05 07:15 S 17 12.87 A Few Clouds FEW013 23.5 23 97% 75.57 0.0
05 06:55 S 19 14.48 Partly Cloudy SCT013 23.5 22.8 23.5 22.9 96% 75.54 0.0
05 06:35 S 17 G 28 16.09 Partly Cloudy SCT013 23.5 22.8 96% 75.54 0.0
05 06:15 S 17 14.48 Partly Cloudy SCT013 23.4 22.7 96% 75.54 0.0
05 05:55 S 15 14.48 Partly Cloudy SCT013 23.3 22.6 96% 75.54 0.0
05 05:35 S 17 14.48 A Few Clouds FEW014 23.2 22.5 96% 75.51 0.0
05 05:15 S 19 14.48 Fair CLR 23.2 22.5 96% 75.51 0.0
05 04:55 S 19 16.09 Fair CLR 23.2 22.5 96% 75.54 0.0
05 04:35 S 15 14.48 Fair CLR 23.2 22.5 96% 75.54 0.0
05 04:15 S 17 14.48 A Few Clouds FEW015 23.1 22.3 95% 75.57 0.0
05 03:55 S 17 16.09 Mostly Cloudy BKN014 23 22.3 96% 75.59 0.0
05 03:35 S 17 14.48 Mostly Cloudy BKN013 22.9 22.2 96% 75.59 0.0
05 03:15 S 22 G 30 16.09 Overcast OVC014 22.9 22.1 95% 75.62 0.0
05 02:55 S 19 G 30 14.48 Overcast OVC014 22.9 22.1 95% 75.64 0.0
05 02:35 S 20 16.09 Overcast OVC014 22.9 21.9 94% 75.64 0.0
05 02:15 S 22 16.09 Overcast OVC014 22.9 21.9 94% 75.64 0.0
05 01:55 S 13 G 33 14.48 Overcast OVC015 22.9 21.7 93% 75.67 0.0
05 01:35 S 20 14.48 Overcast OVC015 23 21.6 92% 75.69 0.0
05 01:15 S 26 G 33 16.09 Mostly Cloudy BKN017 23.2 21.6 91% 75.72 0.0
05 00:55 S 17 G 30 16.09 Partly Cloudy SCT019 23.3 21.4 28.4 23.3 89% 75.74 0.0
05 00:35 S 24 16.09 Mostly Cloudy BKN019 23.4 21.3 88% 75.74 0.0
05 00:15 S 24 G 35 14.48 Partly Cloudy SCT019 23.5 21.4 88% 75.74 0.0
04 23:55 S 24 G 30 14.48 Partly Cloudy SCT020 23.7 21.4 87% 75.74 0.0
04 23:35 S 20 16.09 A Few Clouds FEW020 23.7 21.4 87% 75.77 0.0
04 23:15 S 17 16.09 Fair CLR 23.7 21.4 87% 75.77 0.0
04 22:55 SE 17 16.09 Fair CLR 23.9 21.4 86% 24 75.74 0.0
04 22:35 SE 19 14.48 Fair CLR 23.8 21.4 86% 75.74 0.0
04 22:15 SE 15 16.09 Fair CLR 23.9 21.4 86% 24 75.74 0.0
04 21:55 SE 17 14.48 Fair CLR 24.2 21.3 84% 24 75.74 0.0
04 21:35 SE 19 14.48 Fair CLR 24.5 21.3 82% 25 75.72 0.0
Date Time (cdt) Wind (kph) Vis. (km) Weather Sky Cond. Air Dwpt Max. Min. Relative Humidity Wind Chill (°C) Heat Index (°C) altimeter (cm) sea level (mb) 1 hr 3 hr 6 hr
6 hour
Temperature (ºC) Pressure Precipitation (cm)